BAW903 EGLL-EDDF
Flight info
| Callsign | BAW903 |
|---|---|
| Flight time | 1h 19m |
| Altitude | 35000 |
| Route | BPK Q295 MATCH DCT REDFA DCT TACHA DCT NOLRU DCT DIXAT DIXAT1A |
| Aircraft | A320/M-SDE3FGHIRWY/LB1 |
Departure
| Time | 2026-05-06 09:52 |
|---|---|
| Airport | London Heathrow Airport (EGLL) |
Arrival
| Time | 2026-05-06 11:11 |
|---|---|
| Airport | Frankfurt Main Airport (EDDF) |
| Time | Latitude | Longitude | Altitude | Speed | Heading |
|---|---|---|---|---|---|
| 2026-05-06 09:13 | 51.47417 | -0.48953 | 86 ft | 0 kts | 180° |
| 2026-05-06 09:38 | 51.47435 | -0.48953 | 90 ft | 4 kts | 180° |
| 2026-05-06 09:38 | 51.47454 | -0.48954 | 89 ft | 4 kts | 213° |
| 2026-05-06 09:38 | 51.47467 | -0.48929 | 89 ft | 2 kts | 219° |
| 2026-05-06 09:39 | 51.47485 | -0.48909 | 88 ft | 4 kts | 183° |
| 2026-05-06 09:39 | 51.47500 | -0.48922 | 87 ft | 4 kts | 135° |
| 2026-05-06 09:39 | 51.47507 | -0.48933 | 91 ft | 0 kts | 135° |
| 2026-05-06 09:42 | 51.47499 | -0.48920 | 87 ft | 6 kts | 134° |
| 2026-05-06 09:42 | 51.47485 | -0.48828 | 89 ft | 10 kts | 88° |
| 2026-05-06 09:42 | 51.47487 | -0.48696 | 88 ft | 13 kts | 90° |
| 2026-05-06 09:42 | 51.47487 | -0.48536 | 87 ft | 15 kts | 90° |
| 2026-05-06 09:43 | 51.47487 | -0.48407 | 88 ft | 9 kts | 90° |
| 2026-05-06 09:43 | 51.47454 | -0.48357 | 87 ft | 8 kts | 172° |
| 2026-05-06 09:43 | 51.47390 | -0.48358 | 86 ft | 10 kts | 179° |
| 2026-05-06 09:43 | 51.47312 | -0.48358 | 86 ft | 13 kts | 180° |
| 2026-05-06 09:44 | 51.47217 | -0.48358 | 86 ft | 15 kts | 180° |
| 2026-05-06 09:44 | 51.47118 | -0.48357 | 87 ft | 12 kts | 180° |
| 2026-05-06 09:44 | 51.47034 | -0.48357 | 88 ft | 13 kts | 180° |
| 2026-05-06 09:44 | 51.46934 | -0.48356 | 88 ft | 15 kts | 180° |
| 2026-05-06 09:45 | 51.46861 | -0.48356 | 86 ft | 9 kts | 179° |
| 2026-05-06 09:45 | 51.46826 | -0.48355 | 86 ft | 0 kts | 179° |
| 2026-05-06 09:45 | 51.46823 | -0.48355 | 86 ft | 2 kts | 179° |
| 2026-05-06 09:45 | 51.46788 | -0.48355 | 86 ft | 9 kts | 180° |
| 2026-05-06 09:46 | 51.46738 | -0.48418 | 88 ft | 11 kts | 241° |
| 2026-05-06 09:46 | 51.46668 | -0.48469 | 86 ft | 13 kts | 178° |
| 2026-05-06 09:46 | 51.46606 | -0.48467 | 86 ft | 6 kts | 179° |
| 2026-05-06 09:46 | 51.46599 | -0.48467 | 86 ft | 0 kts | 179° |
| 2026-05-06 09:48 | 51.46596 | -0.48467 | 86 ft | 2 kts | 180° |
| 2026-05-06 09:49 | 51.46549 | -0.48467 | 86 ft | 10 kts | 180° |
| 2026-05-06 09:49 | 51.46480 | -0.48422 | 88 ft | 12 kts | 118° |
| 2026-05-06 09:49 | 51.46478 | -0.48349 | 87 ft | 0 kts | 88° |
| 2026-05-06 09:49 | 51.46478 | -0.48348 | 87 ft | 0 kts | 88° |
| 2026-05-06 09:50 | 51.46478 | -0.48343 | 89 ft | 0 kts | 88° |
| 2026-05-06 09:51 | 51.46479 | -0.48232 | 89 ft | 36 kts | 89° |
| 2026-05-06 09:51 | 51.46482 | -0.47429 | 86 ft | 104 kts | 90° |
| 2026-05-06 09:51 | 51.46487 | -0.45986 | 89 ft | 153 kts | 89° |
| 2026-05-06 09:52 | 51.46485 | -0.44153 | 322 ft | 174 kts | 87° |
| 2026-05-06 09:52 | 51.46506 | -0.42197 | 979 ft | 176 kts | 78° |
| 2026-05-06 09:52 | 51.46957 | -0.40406 | 1561 ft | 181 kts | 49° |
| 2026-05-06 09:52 | 51.47831 | -0.38805 | 1883 ft | 202 kts | 46° |
| 2026-05-06 09:53 | 51.48806 | -0.36994 | 2288 ft | 227 kts | 47° |
| 2026-05-06 09:53 | 51.49869 | -0.34966 | 2960 ft | 243 kts | 48° |
| 2026-05-06 09:53 | 51.50963 | -0.32858 | 3950 ft | 247 kts | 47° |
| 2026-05-06 09:53 | 51.52041 | -0.30684 | 4930 ft | 253 kts | 53° |
| 2026-05-06 09:54 | 51.52748 | -0.28027 | 5814 ft | 263 kts | 66° |
| 2026-05-06 09:54 | 51.53338 | -0.25251 | 6661 ft | 270 kts | 67° |
| 2026-05-06 09:54 | 51.53942 | -0.22368 | 7488 ft | 275 kts | 68° |
| 2026-05-06 09:54 | 51.54831 | -0.19694 | 8291 ft | 274 kts | 43° |
| 2026-05-06 09:55 | 51.56444 | -0.18149 | 9113 ft | 273 kts | 14° |
| 2026-05-06 09:55 | 51.58311 | -0.17530 | 9972 ft | 277 kts | 11° |
| 2026-05-06 09:55 | 51.60248 | -0.16841 | 10386 ft | 296 kts | 10° |
| 2026-05-06 09:55 | 51.62346 | -0.16133 | 10604 ft | 320 kts | 10° |
| 2026-05-06 09:56 | 51.64572 | -0.15327 | 10882 ft | 338 kts | 12° |
| 2026-05-06 09:56 | 51.66859 | -0.14287 | 11445 ft | 347 kts | 21° |
| 2026-05-06 09:56 | 51.68922 | -0.12189 | 12092 ft | 355 kts | 41° |
| 2026-05-06 09:56 | 51.70420 | -0.09007 | 12739 ft | 363 kts | 63° |
| 2026-05-06 09:57 | 51.71266 | -0.05542 | 13372 ft | 367 kts | 69° |
| 2026-05-06 09:57 | 51.72135 | -0.01613 | 14089 ft | 370 kts | 70° |
| 2026-05-06 09:57 | 51.72978 | 0.02337 | 14644 ft | 375 kts | 70° |
| 2026-05-06 09:57 | 51.73827 | 0.06336 | 15212 ft | 379 kts | 69° |
| 2026-05-06 09:58 | 51.74697 | 0.10392 | 15751 ft | 384 kts | 69° |
| 2026-05-06 09:58 | 51.75586 | 0.14477 | 16344 ft | 387 kts | 70° |
| 2026-05-06 09:58 | 51.76490 | 0.18590 | 16857 ft | 393 kts | 69° |
| 2026-05-06 09:58 | 51.77412 | 0.22757 | 17500 ft | 394 kts | 69° |
| 2026-05-06 09:59 | 51.78245 | 0.27005 | 18059 ft | 400 kts | 74° |
| 2026-05-06 09:59 | 51.78952 | 0.31361 | 18588 ft | 403 kts | 75° |
| 2026-05-06 09:59 | 51.79662 | 0.35769 | 19154 ft | 406 kts | 75° |
| 2026-05-06 09:59 | 51.80372 | 0.40214 | 19666 ft | 410 kts | 75° |
| 2026-05-06 10:00 | 51.81080 | 0.44686 | 20250 ft | 412 kts | 75° |
| 2026-05-06 10:00 | 51.81790 | 0.49201 | 20739 ft | 417 kts | 75° |
| 2026-05-06 10:00 | 51.82508 | 0.53764 | 21037 ft | 422 kts | 76° |
| 2026-05-06 10:00 | 51.83233 | 0.58370 | 21558 ft | 424 kts | 76° |
| 2026-05-06 10:01 | 51.83960 | 0.62993 | 22078 ft | 425 kts | 76° |
| 2026-05-06 10:01 | 51.84682 | 0.67596 | 22563 ft | 428 kts | 76° |
| 2026-05-06 10:01 | 51.85425 | 0.72344 | 23002 ft | 432 kts | 76° |
| 2026-05-06 10:01 | 51.86159 | 0.77064 | 23486 ft | 434 kts | 76° |
| 2026-05-06 10:02 | 51.86893 | 0.81811 | 23858 ft | 437 kts | 76° |
| 2026-05-06 10:02 | 51.87632 | 0.86604 | 24274 ft | 439 kts | 76° |
| 2026-05-06 10:02 | 51.88363 | 0.91345 | 24639 ft | 442 kts | 76° |
| 2026-05-06 10:02 | 51.89098 | 0.96122 | 25040 ft | 444 kts | 76° |
| 2026-05-06 10:03 | 51.89845 | 1.00979 | 25396 ft | 446 kts | 77° |
| 2026-05-06 10:03 | 51.90593 | 1.05854 | 25778 ft | 448 kts | 77° |
| 2026-05-06 10:03 | 51.91347 | 1.10773 | 26160 ft | 451 kts | 77° |
| 2026-05-06 10:03 | 51.92098 | 1.15708 | 26544 ft | 453 kts | 77° |
| 2026-05-06 10:04 | 51.92852 | 1.20681 | 26925 ft | 455 kts | 77° |
| 2026-05-06 10:04 | 51.93606 | 1.25664 | 27299 ft | 458 kts | 77° |
| 2026-05-06 10:04 | 51.94365 | 1.30697 | 27678 ft | 460 kts | 77° |
| 2026-05-06 10:04 | 51.95124 | 1.35743 | 28037 ft | 462 kts | 77° |
| 2026-05-06 10:05 | 51.95882 | 1.40817 | 28393 ft | 464 kts | 77° |
| 2026-05-06 10:05 | 51.96639 | 1.45924 | 28768 ft | 466 kts | 77° |
| 2026-05-06 10:05 | 51.97394 | 1.51026 | 29250 ft | 465 kts | 77° |
| 2026-05-06 10:05 | 51.98147 | 1.56113 | 29807 ft | 463 kts | 77° |
| 2026-05-06 10:06 | 51.98902 | 1.61197 | 30324 ft | 461 kts | 77° |
| 2026-05-06 10:06 | 51.99407 | 1.64608 | 30615 ft | 461 kts | 77° |
| 2026-05-06 10:06 | 52.00141 | 1.69582 | 31073 ft | 459 kts | 78° |
| 2026-05-06 10:06 | 52.00879 | 1.74627 | 31517 ft | 459 kts | 77° |
| 2026-05-06 10:07 | 52.01614 | 1.79652 | 31991 ft | 457 kts | 77° |
| 2026-05-06 10:07 | 52.02346 | 1.84665 | 32446 ft | 456 kts | 78° |
| 2026-05-06 10:07 | 52.03076 | 1.89675 | 32898 ft | 455 kts | 77° |
| 2026-05-06 10:07 | 52.03792 | 1.94670 | 33354 ft | 454 kts | 79° |
| 2026-05-06 10:08 | 52.04061 | 1.99745 | 33775 ft | 451 kts | 95° |
| 2026-05-06 10:08 | 52.03588 | 2.04753 | 34211 ft | 448 kts | 103° |
| 2026-05-06 10:08 | 52.02966 | 2.09709 | 34547 ft | 448 kts | 103° |
| 2026-05-06 10:08 | 52.02337 | 2.14657 | 34860 ft | 448 kts | 103° |
| 2026-05-06 10:09 | 52.01049 | 2.24629 | 34959 ft | 455 kts | 104° |
| 2026-05-06 10:09 | 51.99740 | 2.34695 | 34958 ft | 456 kts | 103° |
| 2026-05-06 10:10 | 51.98432 | 2.44764 | 34949 ft | 456 kts | 102° |
| 2026-05-06 10:10 | 51.97129 | 2.54813 | 34947 ft | 456 kts | 103° |
| 2026-05-06 10:11 | 51.95814 | 2.64851 | 34942 ft | 455 kts | 102° |
| 2026-05-06 10:11 | 51.94483 | 2.74870 | 34937 ft | 455 kts | 103° |
| 2026-05-06 10:12 | 51.93139 | 2.84898 | 34936 ft | 455 kts | 104° |
| 2026-05-06 10:12 | 51.91789 | 2.94913 | 34930 ft | 455 kts | 103° |
| 2026-05-06 10:13 | 51.90436 | 3.04916 | 34932 ft | 454 kts | 103° |
| 2026-05-06 10:13 | 51.89078 | 3.14900 | 34926 ft | 454 kts | 104° |
| 2026-05-06 10:14 | 51.87717 | 3.24871 | 34922 ft | 453 kts | 104° |
| 2026-05-06 10:14 | 51.86344 | 3.34823 | 34906 ft | 453 kts | 104° |
| 2026-05-06 10:15 | 51.84961 | 3.44766 | 34904 ft | 453 kts | 104° |
| 2026-05-06 10:15 | 51.83562 | 3.54706 | 34894 ft | 453 kts | 104° |
| 2026-05-06 10:16 | 51.82158 | 3.64626 | 34894 ft | 453 kts | 105° |
| 2026-05-06 10:16 | 51.80760 | 3.74536 | 34892 ft | 453 kts | 104° |
| 2026-05-06 10:17 | 51.79345 | 3.84448 | 34893 ft | 452 kts | 104° |
| 2026-05-06 10:17 | 51.77924 | 3.94350 | 34887 ft | 452 kts | 105° |
| 2026-05-06 10:18 | 51.76497 | 4.04237 | 34889 ft | 452 kts | 105° |
| 2026-05-06 10:18 | 51.75062 | 4.14051 | 34889 ft | 452 kts | 104° |
| 2026-05-06 10:19 | 51.73614 | 4.23923 | 34892 ft | 452 kts | 105° |
| 2026-05-06 10:19 | 51.72160 | 4.33803 | 34887 ft | 453 kts | 105° |
| 2026-05-06 10:20 | 51.70697 | 4.43670 | 34879 ft | 453 kts | 104° |
| 2026-05-06 10:20 | 51.69227 | 4.53539 | 34877 ft | 453 kts | 104° |
| 2026-05-06 10:21 | 51.67747 | 4.63393 | 34869 ft | 453 kts | 106° |
| 2026-05-06 10:21 | 51.66257 | 4.73243 | 34868 ft | 453 kts | 104° |
| 2026-05-06 10:22 | 51.64758 | 4.83093 | 34868 ft | 453 kts | 105° |
| 2026-05-06 10:22 | 51.63249 | 4.92927 | 34873 ft | 453 kts | 105° |
| 2026-05-06 10:23 | 51.61735 | 5.02776 | 34877 ft | 453 kts | 105° |
| 2026-05-06 10:23 | 51.60212 | 5.12602 | 34878 ft | 453 kts | 106° |
| 2026-05-06 10:24 | 51.58682 | 5.22423 | 34880 ft | 453 kts | 105° |
| 2026-05-06 10:24 | 51.57147 | 5.32200 | 34875 ft | 452 kts | 105° |
| 2026-05-06 10:25 | 51.55614 | 5.41946 | 34873 ft | 452 kts | 106° |
| 2026-05-06 10:25 | 51.54059 | 5.51799 | 34881 ft | 452 kts | 106° |
| 2026-05-06 10:26 | 51.52495 | 5.61591 | 34870 ft | 452 kts | 105° |
| 2026-05-06 10:26 | 51.50919 | 5.71359 | 34873 ft | 452 kts | 106° |
| 2026-05-06 10:27 | 51.49332 | 5.81189 | 34856 ft | 452 kts | 106° |
| 2026-05-06 10:27 | 51.47754 | 5.90891 | 34852 ft | 453 kts | 105° |
| 2026-05-06 10:28 | 51.46142 | 6.00723 | 34851 ft | 453 kts | 106° |
| 2026-05-06 10:28 | 51.44542 | 6.10497 | 34862 ft | 453 kts | 106° |
| 2026-05-06 10:29 | 51.42928 | 6.20263 | 34856 ft | 453 kts | 107° |
| 2026-05-06 10:29 | 51.41305 | 6.30022 | 34832 ft | 454 kts | 107° |
| 2026-05-06 10:30 | 51.39672 | 6.39800 | 34825 ft | 455 kts | 107° |
| 2026-05-06 10:30 | 51.38023 | 6.49602 | 34812 ft | 457 kts | 107° |
| 2026-05-06 10:31 | 51.36378 | 6.59438 | 34820 ft | 458 kts | 107° |
| 2026-05-06 10:31 | 51.34689 | 6.69269 | 34831 ft | 458 kts | 108° |
| 2026-05-06 10:32 | 51.32997 | 6.79074 | 34808 ft | 458 kts | 107° |
| 2026-05-06 10:32 | 51.31315 | 6.88903 | 34836 ft | 459 kts | 107° |
| 2026-05-06 10:33 | 51.29624 | 6.98738 | 34833 ft | 459 kts | 108° |
| 2026-05-06 10:33 | 51.27533 | 7.08315 | 34572 ft | 455 kts | 120° |
| 2026-05-06 10:34 | 51.25833 | 7.12595 | 33601 ft | 460 kts | 130° |
| 2026-05-06 10:34 | 51.23660 | 7.16272 | 32608 ft | 462 kts | 141° |
| 2026-05-06 10:34 | 51.21086 | 7.19352 | 31656 ft | 455 kts | 149° |
| 2026-05-06 10:34 | 51.18325 | 7.21731 | 30734 ft | 448 kts | 153° |
| 2026-05-06 10:35 | 51.15542 | 7.23948 | 29614 ft | 446 kts | 153° |
| 2026-05-06 10:35 | 51.12779 | 7.26142 | 28486 ft | 441 kts | 153° |
| 2026-05-06 10:35 | 51.10062 | 7.28306 | 27393 ft | 435 kts | 153° |
| 2026-05-06 10:35 | 51.07346 | 7.30513 | 26381 ft | 438 kts | 153° |
| 2026-05-06 10:36 | 51.04667 | 7.32728 | 25705 ft | 434 kts | 153° |
| 2026-05-06 10:36 | 51.01991 | 7.34956 | 25117 ft | 437 kts | 153° |
| 2026-05-06 10:36 | 50.99286 | 7.37206 | 24514 ft | 439 kts | 153° |
| 2026-05-06 10:36 | 50.96579 | 7.39446 | 23900 ft | 437 kts | 153° |
| 2026-05-06 10:37 | 50.93898 | 7.41660 | 23282 ft | 434 kts | 153° |
| 2026-05-06 10:37 | 50.91226 | 7.43858 | 22630 ft | 430 kts | 154° |
| 2026-05-06 10:37 | 50.88578 | 7.46028 | 22038 ft | 427 kts | 154° |
| 2026-05-06 10:37 | 50.85947 | 7.48178 | 21443 ft | 424 kts | 154° |
| 2026-05-06 10:38 | 50.83305 | 7.50337 | 20863 ft | 420 kts | 154° |
| 2026-05-06 10:38 | 50.80753 | 7.52420 | 20259 ft | 416 kts | 155° |
| 2026-05-06 10:38 | 50.78194 | 7.54515 | 19693 ft | 411 kts | 155° |
| 2026-05-06 10:38 | 50.75663 | 7.56577 | 19125 ft | 407 kts | 155° |
| 2026-05-06 10:39 | 50.73160 | 7.58605 | 18553 ft | 404 kts | 155° |
| 2026-05-06 10:39 | 50.70673 | 7.60622 | 17993 ft | 400 kts | 155° |
| 2026-05-06 10:39 | 50.68201 | 7.62625 | 17437 ft | 397 kts | 155° |
| 2026-05-06 10:39 | 50.65748 | 7.64615 | 16973 ft | 395 kts | 155° |
| 2026-05-06 10:40 | 50.63325 | 7.66576 | 16483 ft | 392 kts | 156° |
| 2026-05-06 10:40 | 50.60908 | 7.68523 | 16002 ft | 390 kts | 156° |
| 2026-05-06 10:40 | 50.58496 | 7.70467 | 15545 ft | 388 kts | 156° |
| 2026-05-06 10:40 | 50.56100 | 7.72401 | 15116 ft | 386 kts | 156° |
| 2026-05-06 10:41 | 50.53715 | 7.74327 | 14678 ft | 384 kts | 156° |
| 2026-05-06 10:41 | 50.51343 | 7.76238 | 14241 ft | 382 kts | 156° |
| 2026-05-06 10:41 | 50.48978 | 7.78136 | 13811 ft | 381 kts | 156° |
| 2026-05-06 10:41 | 50.46625 | 7.80021 | 13338 ft | 379 kts | 156° |
| 2026-05-06 10:42 | 50.44294 | 7.81905 | 12903 ft | 377 kts | 154° |
| 2026-05-06 10:42 | 50.42114 | 7.84205 | 12254 ft | 379 kts | 145° |
| 2026-05-06 10:42 | 50.40038 | 7.86755 | 11562 ft | 376 kts | 144° |
| 2026-05-06 10:42 | 50.38027 | 7.89265 | 11304 ft | 360 kts | 144° |
| 2026-05-06 10:43 | 50.36128 | 7.91650 | 11178 ft | 337 kts | 144° |
| 2026-05-06 10:43 | 50.34368 | 7.93861 | 11043 ft | 312 kts | 144° |
| 2026-05-06 10:43 | 50.32709 | 7.95931 | 10873 ft | 301 kts | 145° |
| 2026-05-06 10:44 | 50.29483 | 7.99911 | 9829 ft | 292 kts | 145° |
| 2026-05-06 10:44 | 50.27902 | 8.01857 | 9697 ft | 283 kts | 145° |
| 2026-05-06 10:44 | 50.26387 | 8.03843 | 9761 ft | 287 kts | 138° |
| 2026-05-06 10:44 | 50.25102 | 8.06270 | 9703 ft | 290 kts | 131° |
| 2026-05-06 10:45 | 50.23883 | 8.08756 | 9613 ft | 290 kts | 130° |
| 2026-05-06 10:45 | 50.22655 | 8.11259 | 9526 ft | 291 kts | 131° |
| 2026-05-06 10:45 | 50.21423 | 8.13762 | 9437 ft | 290 kts | 131° |
| 2026-05-06 10:45 | 50.20192 | 8.16255 | 9357 ft | 289 kts | 131° |
| 2026-05-06 10:46 | 50.18964 | 8.18743 | 9272 ft | 289 kts | 131° |
| 2026-05-06 10:46 | 50.17665 | 8.21107 | 9228 ft | 284 kts | 144° |
| 2026-05-06 10:46 | 50.15996 | 8.22690 | 9234 ft | 280 kts | 156° |
| 2026-05-06 10:46 | 50.14214 | 8.23895 | 9231 ft | 277 kts | 170° |
| 2026-05-06 10:47 | 50.12321 | 8.24004 | 9236 ft | 273 kts | 188° |
| 2026-05-06 10:47 | 50.10463 | 8.23445 | 9236 ft | 271 kts | 200° |
| 2026-05-06 10:47 | 50.08639 | 8.22722 | 9237 ft | 273 kts | 185° |
| 2026-05-06 10:47 | 50.06761 | 8.23233 | 9232 ft | 279 kts | 160° |
| 2026-05-06 10:48 | 50.05648 | 8.24244 | 9227 ft | 284 kts | 144° |
| 2026-05-06 10:48 | 50.04396 | 8.26649 | 9224 ft | 291 kts | 118° |
| 2026-05-06 10:48 | 50.03922 | 8.29718 | 9220 ft | 295 kts | 92° |
| 2026-05-06 10:48 | 50.04333 | 8.32735 | 9212 ft | 277 kts | 65° |
| 2026-05-06 10:49 | 50.05431 | 8.35104 | 9214 ft | 271 kts | 45° |
| 2026-05-06 10:49 | 50.06632 | 8.37357 | 9211 ft | 271 kts | 57° |
| 2026-05-06 10:49 | 50.07612 | 8.39854 | 9211 ft | 264 kts | 60° |
| 2026-05-06 10:49 | 50.08505 | 8.42244 | 9206 ft | 251 kts | 60° |
| 2026-05-06 10:50 | 50.09373 | 8.44578 | 9193 ft | 248 kts | 61° |
| 2026-05-06 10:50 | 50.10228 | 8.46892 | 9092 ft | 246 kts | 62° |
| 2026-05-06 10:50 | 50.11031 | 8.49251 | 8868 ft | 244 kts | 64° |
| 2026-05-06 10:50 | 50.11793 | 8.51632 | 8783 ft | 254 kts | 65° |
| 2026-05-06 10:51 | 50.12557 | 8.54070 | 8776 ft | 248 kts | 65° |
| 2026-05-06 10:51 | 50.13353 | 8.56625 | 8784 ft | 266 kts | 65° |
| 2026-05-06 10:51 | 50.14142 | 8.59153 | 8773 ft | 252 kts | 65° |
| 2026-05-06 10:51 | 50.14899 | 8.61566 | 8778 ft | 246 kts | 65° |
| 2026-05-06 10:52 | 50.15718 | 8.64181 | 8800 ft | 282 kts | 65° |
| 2026-05-06 10:52 | 50.16506 | 8.66676 | 8783 ft | 292 kts | 64° |
| 2026-05-06 10:52 | 50.17371 | 8.69738 | 8775 ft | 316 kts | 70° |
| 2026-05-06 10:52 | 50.18104 | 8.72848 | 8759 ft | 291 kts | 71° |
| 2026-05-06 10:53 | 50.18774 | 8.75669 | 8768 ft | 265 kts | 71° |
| 2026-05-06 10:53 | 50.19391 | 8.78265 | 8771 ft | 248 kts | 71° |
| 2026-05-06 10:53 | 50.19982 | 8.80772 | 8642 ft | 244 kts | 71° |
| 2026-05-06 10:53 | 50.20571 | 8.83284 | 8425 ft | 257 kts | 71° |
| 2026-05-06 10:54 | 50.21248 | 8.86171 | 8507 ft | 302 kts | 71° |
| 2026-05-06 10:54 | 50.21958 | 8.89165 | 9793 ft | 283 kts | 71° |
| 2026-05-06 10:54 | 50.22642 | 8.92034 | 10965 ft | 280 kts | 71° |
| 2026-05-06 10:54 | 50.23336 | 8.94938 | 11448 ft | 295 kts | 71° |
| 2026-05-06 10:55 | 50.24048 | 8.97911 | 11313 ft | 286 kts | 71° |
| 2026-05-06 10:55 | 50.24724 | 9.00769 | 11185 ft | 277 kts | 71° |
| 2026-05-06 10:55 | 50.25369 | 9.03578 | 11055 ft | 269 kts | 72° |
| 2026-05-06 10:55 | 50.25964 | 9.06218 | 10851 ft | 266 kts | 72° |
| 2026-05-06 10:56 | 50.26575 | 9.08927 | 10637 ft | 263 kts | 72° |
| 2026-05-06 10:56 | 50.27192 | 9.11615 | 10371 ft | 262 kts | 72° |
| 2026-05-06 10:56 | 50.27813 | 9.14295 | 10132 ft | 261 kts | 71° |
| 2026-05-06 10:56 | 50.28431 | 9.16958 | 9974 ft | 260 kts | 71° |
| 2026-05-06 10:57 | 50.29048 | 9.19616 | 9838 ft | 260 kts | 72° |
| 2026-05-06 10:57 | 50.29660 | 9.22263 | 9609 ft | 259 kts | 72° |
| 2026-05-06 10:57 | 50.30273 | 9.24919 | 9290 ft | 259 kts | 72° |
| 2026-05-06 10:57 | 50.30885 | 9.27564 | 8971 ft | 259 kts | 72° |
| 2026-05-06 10:58 | 50.31486 | 9.30219 | 8645 ft | 258 kts | 76° |
| 2026-05-06 10:58 | 50.31624 | 9.32955 | 8448 ft | 250 kts | 102° |
| 2026-05-06 10:58 | 50.31060 | 9.35461 | 8172 ft | 241 kts | 127° |
| 2026-05-06 10:58 | 50.29937 | 9.37322 | 7883 ft | 233 kts | 151° |
| 2026-05-06 10:59 | 50.28487 | 9.38310 | 7610 ft | 224 kts | 173° |
| 2026-05-06 10:59 | 50.26963 | 9.38367 | 7352 ft | 218 kts | 194° |
| 2026-05-06 10:59 | 50.25553 | 9.37568 | 7043 ft | 216 kts | 213° |
| 2026-05-06 10:59 | 50.24380 | 9.36121 | 6726 ft | 216 kts | 221° |
| 2026-05-06 11:00 | 50.23227 | 9.34597 | 6480 ft | 217 kts | 220° |
| 2026-05-06 11:00 | 50.22112 | 9.33035 | 6264 ft | 214 kts | 227° |
| 2026-05-06 11:00 | 50.21200 | 9.31196 | 5969 ft | 214 kts | 238° |
| 2026-05-06 11:00 | 50.20537 | 9.29115 | 5646 ft | 214 kts | 248° |
| 2026-05-06 11:01 | 50.20039 | 9.26935 | 5414 ft | 213 kts | 249° |
| 2026-05-06 11:01 | 50.19536 | 9.24761 | 5132 ft | 212 kts | 249° |
| 2026-05-06 11:01 | 50.19036 | 9.22608 | 4878 ft | 210 kts | 249° |
| 2026-05-06 11:01 | 50.18541 | 9.20471 | 4598 ft | 210 kts | 248° |
| 2026-05-06 11:02 | 50.18043 | 9.18324 | 4297 ft | 210 kts | 249° |
| 2026-05-06 11:02 | 50.17547 | 9.16191 | 4031 ft | 208 kts | 248° |
| 2026-05-06 11:02 | 50.17054 | 9.14078 | 3819 ft | 207 kts | 249° |
| 2026-05-06 11:02 | 50.16560 | 9.11956 | 3764 ft | 208 kts | 248° |
| 2026-05-06 11:03 | 50.16065 | 9.09831 | 3770 ft | 210 kts | 248° |
| 2026-05-06 11:03 | 50.15569 | 9.07702 | 3772 ft | 209 kts | 248° |
| 2026-05-06 11:03 | 50.15068 | 9.05565 | 3772 ft | 210 kts | 248° |
| 2026-05-06 11:03 | 50.14559 | 9.03422 | 3775 ft | 211 kts | 248° |
| 2026-05-06 11:04 | 50.14057 | 9.01286 | 3776 ft | 209 kts | 248° |
| 2026-05-06 11:04 | 50.13573 | 8.99210 | 3783 ft | 200 kts | 248° |
| 2026-05-06 11:04 | 50.13098 | 8.97183 | 3774 ft | 198 kts | 248° |
| 2026-05-06 11:04 | 50.12626 | 8.95165 | 3774 ft | 199 kts | 248° |
| 2026-05-06 11:05 | 50.12147 | 8.93124 | 3776 ft | 199 kts | 248° |
| 2026-05-06 11:05 | 50.11675 | 8.91108 | 3780 ft | 198 kts | 248° |
| 2026-05-06 11:05 | 50.11200 | 8.89087 | 3784 ft | 200 kts | 248° |
| 2026-05-06 11:05 | 50.10720 | 8.87042 | 3785 ft | 200 kts | 248° |
| 2026-05-06 11:06 | 50.10243 | 8.85015 | 3786 ft | 199 kts | 248° |
| 2026-05-06 11:06 | 50.09774 | 8.83021 | 3643 ft | 193 kts | 248° |
| 2026-05-06 11:06 | 50.09315 | 8.81073 | 3398 ft | 186 kts | 248° |
| 2026-05-06 11:06 | 50.08888 | 8.79257 | 3157 ft | 169 kts | 247° |
| 2026-05-06 11:07 | 50.08505 | 8.77635 | 2955 ft | 149 kts | 247° |
| 2026-05-06 11:07 | 50.08163 | 8.76185 | 2757 ft | 138 kts | 246° |
| 2026-05-06 11:07 | 50.07838 | 8.74812 | 2554 ft | 134 kts | 247° |
| 2026-05-06 11:07 | 50.07518 | 8.73460 | 2385 ft | 132 kts | 246° |
| 2026-05-06 11:08 | 50.07199 | 8.72115 | 2217 ft | 133 kts | 248° |
| 2026-05-06 11:08 | 50.06877 | 8.70755 | 2029 ft | 133 kts | 248° |
| 2026-05-06 11:08 | 50.06560 | 8.69416 | 1860 ft | 130 kts | 248° |
| 2026-05-06 11:08 | 50.06245 | 8.68090 | 1692 ft | 130 kts | 247° |
| 2026-05-06 11:09 | 50.05930 | 8.66761 | 1495 ft | 132 kts | 246° |
| 2026-05-06 11:09 | 50.05607 | 8.65424 | 1349 ft | 131 kts | 246° |
| 2026-05-06 11:09 | 50.05296 | 8.64092 | 1158 ft | 131 kts | 246° |
| 2026-05-06 11:09 | 50.04983 | 8.62761 | 942 ft | 132 kts | 246° |
| 2026-05-06 11:10 | 50.04659 | 8.61426 | 774 ft | 134 kts | 248° |
| 2026-05-06 11:10 | 50.04350 | 8.60093 | 569 ft | 130 kts | 246° |
| 2026-05-06 11:10 | 50.04037 | 8.58784 | 425 ft | 129 kts | 248° |
| 2026-05-06 11:10 | 50.03725 | 8.57496 | 362 ft | 121 kts | 249° |
| 2026-05-06 11:11 | 50.03486 | 8.56493 | 356 ft | 74 kts | 251° |
| 2026-05-06 11:11 | 50.03356 | 8.55942 | 356 ft | 29 kts | 249° |
| 2026-05-06 11:11 | 50.03310 | 8.55635 | 343 ft | 27 kts | 267° |
| 2026-05-06 11:11 | 50.03322 | 8.55419 | 351 ft | 17 kts | 279° |
| 2026-05-06 11:12 | 50.03343 | 8.55238 | 342 ft | 15 kts | 281° |
| 2026-05-06 11:12 | 50.03414 | 8.55186 | 343 ft | 13 kts | 32° |
| 2026-05-06 11:12 | 50.03455 | 8.55322 | 350 ft | 15 kts | 71° |
| 2026-05-06 11:12 | 50.03492 | 8.55480 | 355 ft | 16 kts | 68° |
| 2026-05-06 11:13 | 50.03535 | 8.55654 | 357 ft | 18 kts | 69° |
| 2026-05-06 11:13 | 50.03581 | 8.55844 | 355 ft | 19 kts | 70° |
| 2026-05-06 11:13 | 50.03628 | 8.56044 | 357 ft | 20 kts | 70° |
| 2026-05-06 11:13 | 50.03677 | 8.56255 | 355 ft | 22 kts | 70° |
| 2026-05-06 11:14 | 50.03734 | 8.56486 | 355 ft | 24 kts | 69° |
| 2026-05-06 11:14 | 50.03794 | 8.56739 | 359 ft | 26 kts | 70° |
| 2026-05-06 11:14 | 50.03858 | 8.57008 | 359 ft | 20 kts | 69° |
| 2026-05-06 11:14 | 50.03904 | 8.57201 | 361 ft | 19 kts | 69° |
| 2026-05-06 11:15 | 50.03950 | 8.57392 | 364 ft | 19 kts | 69° |
| 2026-05-06 11:15 | 50.03998 | 8.57588 | 368 ft | 20 kts | 69° |
| 2026-05-06 11:15 | 50.04044 | 8.57783 | 368 ft | 11 kts | 69° |
| 2026-05-06 11:15 | 50.04109 | 8.57819 | 367 ft | 13 kts | 346° |
| 2026-05-06 11:16 | 50.04208 | 8.57759 | 363 ft | 18 kts | 339° |
| 2026-05-06 11:16 | 50.04331 | 8.57689 | 364 ft | 17 kts | 341° |
| 2026-05-06 11:16 | 50.04363 | 8.57672 | 363 ft | 9 kts | 340° |
| 2026-05-06 11:16 | 50.04429 | 8.57624 | 368 ft | 12 kts | 330° |
| 2026-05-06 11:17 | 50.04516 | 8.57548 | 364 ft | 17 kts | 332° |
| 2026-05-06 11:17 | 50.04605 | 8.57515 | 358 ft | 13 kts | 22° |
| 2026-05-06 11:17 | 50.04651 | 8.57656 | 360 ft | 16 kts | 71° |
| 2026-05-06 11:17 | 50.04691 | 8.57831 | 360 ft | 18 kts | 69° |
| 2026-05-06 11:18 | 50.04762 | 8.57979 | 361 ft | 18 kts | 57° |
| 2026-05-06 11:18 | 50.04826 | 8.58154 | 362 ft | 19 kts | 68° |
| 2026-05-06 11:18 | 50.04875 | 8.58356 | 366 ft | 21 kts | 69° |
| 2026-05-06 11:18 | 50.04926 | 8.58566 | 361 ft | 18 kts | 69° |
| 2026-05-06 11:19 | 50.04953 | 8.58674 | 362 ft | 4 kts | 69° |
| 2026-05-06 11:19 | 50.04964 | 8.58726 | 362 ft | 6 kts | 77° |
| 2026-05-06 11:19 | 50.04943 | 8.58772 | 364 ft | 5 kts | 155° |
| 2026-05-06 11:19 | 50.04914 | 8.58787 | 364 ft | 4 kts | 159° |
| 2026-05-06 11:20 | 50.04901 | 8.58796 | 366 ft | 0 kts | 159° |